sensor_id;sensor_type;location;lat;lon;timestamp;pressure;altitude;pressure_sealevel;temperature;humidity
77013;BME280;67260;53.130;17.982;2023-08-01T00:00:33;99997.13;;;18.81;68.24
77013;BME280;67260;53.130;17.982;2023-08-01T00:03:21;100000.79;;;18.81;68.07
77013;BME280;67260;53.130;17.982;2023-08-01T00:05:48;100000.52;;;18.81;68.15
77013;BME280;67260;53.130;17.982;2023-08-01T00:08:16;99995.36;;;18.80;68.28
77013;BME280;67260;53.130;17.982;2023-08-01T00:10:42;99992.30;;;18.79;68.36
77013;BME280;67260;53.130;17.982;2023-08-01T00:13:09;99985.90;;;18.77;68.40
77013;BME280;67260;53.130;17.982;2023-08-01T00:15:37;99980.69;;;18.75;68.27
77013;BME280;67260;53.130;17.982;2023-08-01T00:18:05;99978.33;;;18.74;68.46
77013;BME280;67260;53.130;17.982;2023-08-01T00:20:31;99974.00;;;18.71;68.45
77013;BME280;67260;53.130;17.982;2023-08-01T00:22:58;99974.42;;;18.68;68.59
77013;BME280;67260;53.130;17.982;2023-08-01T00:25:25;99971.80;;;18.65;68.50
77013;BME280;67260;53.130;17.982;2023-08-01T00:27:51;99971.00;;;18.62;68.83
77013;BME280;67260;53.130;17.982;2023-08-01T00:30:19;99967.11;;;18.59;68.79
77013;BME280;67260;53.130;17.982;2023-08-01T00:33:08;99960.69;;;18.54;68.95
77013;BME280;67260;53.130;17.982;2023-08-01T00:35:34;99959.63;;;18.51;69.12
77013;BME280;67260;53.130;17.982;2023-08-01T00:38:01;99954.37;;;18.49;69.13
77013;BME280;67260;53.130;17.982;2023-08-01T00:40:31;99953.84;;;18.48;69.20
77013;BME280;67260;53.130;17.982;2023-08-01T00:42:58;99946.20;;;18.46;69.12
77013;BME280;67260;53.130;17.982;2023-08-01T00:45:28;99946.75;;;18.45;69.25
77013;BME280;67260;53.130;17.982;2023-08-01T00:47:56;99939.44;;;18.44;69.22
77013;BME280;67260;53.130;17.982;2023-08-01T00:50:23;99935.79;;;18.43;69.28
77013;BME280;67260;53.130;17.982;2023-08-01T00:52:52;99933.16;;;18.42;69.42
77013;BME280;67260;53.130;17.982;2023-08-01T00:55:23;99925.27;;;18.40;69.41
77013;BME280;67260;53.130;17.982;2023-08-01T00:57:52;99923.11;;;18.39;69.41
77013;BME280;67260;53.130;17.982;2023-08-01T01:00:20;99917.30;;;18.38;69.43
77013;BME280;67260;53.130;17.982;2023-08-01T01:02:46;99910.96;;;18.38;69.40
77013;BME280;67260;53.130;17.982;2023-08-01T01:05:13;99907.86;;;18.37;69.46
77013;BME280;67260;53.130;17.982;2023-08-01T01:07:42;99905.37;;;18.37;69.27
77013;BME280;67260;53.130;17.982;2023-08-01T01:10:10;99900.33;;;18.36;69.51
77013;BME280;67260;53.130;17.982;2023-08-01T01:12:37;99897.81;;;18.35;69.59
77013;BME280;67260;53.130;17.982;2023-08-01T01:15:04;99894.68;;;18.36;69.54
77013;BME280;67260;53.130;17.982;2023-08-01T01:17:31;99893.72;;;18.35;69.70
77013;BME280;67260;53.130;17.982;2023-08-01T01:19:58;99891.78;;;18.35;69.57
77013;BME280;67260;53.130;17.982;2023-08-01T01:22:25;99883.17;;;18.36;69.47
77013;BME280;67260;53.130;17.982;2023-08-01T01:24:55;99879.52;;;18.36;69.49
77013;BME280;67260;53.130;17.982;2023-08-01T01:27:24;99878.00;;;18.37;69.42
77013;BME280;67260;53.130;17.982;2023-08-01T01:29:51;99874.08;;;18.37;69.58
77013;BME280;67260;53.130;17.982;2023-08-01T01:32:18;99872.69;;;18.37;69.59
77013;BME280;67260;53.130;17.982;2023-08-01T01:34:46;99876.39;;;18.36;69.55
77013;BME280;67260;53.130;17.982;2023-08-01T01:37:13;99870.05;;;18.35;69.51
77013;BME280;67260;53.130;17.982;2023-08-01T01:39:40;99866.23;;;18.34;69.69
77013;BME280;67260;53.130;17.982;2023-08-01T01:42:07;99862.42;;;18.35;69.60
77013;BME280;67260;53.130;17.982;2023-08-01T01:44:34;99858.49;;;18.35;69.71
77013;BME280;67260;53.130;17.982;2023-08-01T01:47:00;99854.04;;;18.34;69.72
77013;BME280;67260;53.130;17.982;2023-08-01T01:49:27;99850.70;;;18.33;69.59
77013;BME280;67260;53.130;17.982;2023-08-01T01:51:54;99845.50;;;18.32;69.78
77013;BME280;67260;53.130;17.982;2023-08-01T01:54:21;99844.10;;;18.32;69.76
77013;BME280;67260;53.130;17.982;2023-08-01T01:56:48;99843.13;;;18.31;69.74
77013;BME280;67260;53.130;17.982;2023-08-01T01:59:14;99840.98;;;18.30;69.65
77013;BME280;67260;53.130;17.982;2023-08-01T02:01:42;99837.29;;;18.30;69.96
77013;BME280;67260;53.130;17.982;2023-08-01T02:04:08;99829.86;;;18.29;69.87
77013;BME280;67260;53.130;17.982;2023-08-01T02:06:35;99826.59;;;18.28;69.79
77013;BME280;67260;53.130;17.982;2023-08-01T02:09:02;99822.35;;;18.27;69.97
77013;BME280;67260;53.130;17.982;2023-08-01T02:11:30;99819.34;;;18.27;69.96
77013;BME280;67260;53.130;17.982;2023-08-01T02:13:57;99808.98;;;18.26;69.78
77013;BME280;67260;53.130;17.982;2023-08-01T02:16:24;99811.55;;;18.26;69.97
77013;BME280;67260;53.130;17.982;2023-08-01T02:18:51;99803.17;;;18.24;69.85
77013;BME280;67260;53.130;17.982;2023-08-01T02:21:17;99797.31;;;18.24;69.91
77013;BME280;67260;53.130;17.982;2023-08-01T02:23:44;99798.88;;;18.23;69.88
77013;BME280;67260;53.130;17.982;2023-08-01T02:26:11;99793.17;;;18.24;69.89
77013;BME280;67260;53.130;17.982;2023-08-01T02:28:38;99788.55;;;18.24;69.97
77013;BME280;67260;53.130;17.982;2023-08-01T02:31:05;99784.36;;;18.23;69.92
77013;BME280;67260;53.130;17.982;2023-08-01T02:33:32;99780.02;;;18.22;69.95
77013;BME280;67260;53.130;17.982;2023-08-01T02:36:00;99777.00;;;18.22;69.83
77013;BME280;67260;53.130;17.982;2023-08-01T02:38:27;99773.83;;;18.22;69.82
77013;BME280;67260;53.130;17.982;2023-08-01T02:40:54;99768.94;;;18.21;70.00
77013;BME280;67260;53.130;17.982;2023-08-01T02:43:20;99766.26;;;18.20;69.96
77013;BME280;67260;53.130;17.982;2023-08-01T02:45:47;99768.36;;;18.19;70.11
77013;BME280;67260;53.130;17.982;2023-08-01T02:48:14;99767.40;;;18.20;69.79
77013;BME280;67260;53.130;17.982;2023-08-01T02:50:41;99764.87;;;18.19;69.96
77013;BME280;67260;53.130;17.982;2023-08-01T02:53:07;99763.58;;;18.19;69.88
77013;BME280;67260;53.130;17.982;2023-08-01T02:55:34;99761.05;;;18.20;69.89
77013;BME280;67260;53.130;17.982;2023-08-01T02:58:01;99761.74;;;18.19;69.98
77013;BME280;67260;53.130;17.982;2023-08-01T03:00:28;99760.46;;;18.19;70.05
77013;BME280;67260;53.130;17.982;2023-08-01T03:02:54;99763.38;;;18.17;70.38
77013;BME280;67260;53.130;17.982;2023-08-01T03:05:21;99764.78;;;18.17;70.10
77013;BME280;67260;53.130;17.982;2023-08-01T03:07:48;99762.84;;;18.16;70.17
77013;BME280;67260;53.130;17.982;2023-08-01T03:10:14;99765.27;;;18.16;70.27
77013;BME280;67260;53.130;17.982;2023-08-01T03:12:41;99758.95;;;18.14;70.24
77013;BME280;67260;53.130;17.982;2023-08-01T03:15:08;99761.63;;;18.14;70.23
77013;BME280;67260;53.130;17.982;2023-08-01T03:17:35;99758.69;;;18.13;70.26
77013;BME280;67260;53.130;17.982;2023-08-01T03:20:02;99758.79;;;18.12;70.44
77013;BME280;67260;53.130;17.982;2023-08-01T03:22:29;99754.39;;;18.12;70.27
77013;BME280;67260;53.130;17.982;2023-08-01T03:24:56;99754.06;;;18.11;70.38
77013;BME280;67260;53.130;17.982;2023-08-01T03:27:22;99751.81;;;18.11;70.44
77013;BME280;67260;53.130;17.982;2023-08-01T03:29:51;99746.05;;;18.11;70.15
77013;BME280;67260;53.130;17.982;2023-08-01T03:32:18;99742.44;;;18.12;70.42
77013;BME280;67260;53.130;17.982;2023-08-01T03:34:44;99736.15;;;18.14;70.40
77013;BME280;67260;53.130;17.982;2023-08-01T03:37:11;99734.20;;;18.15;70.37
77013;BME280;67260;53.130;17.982;2023-08-01T03:39:39;99730.42;;;18.16;70.37
77013;BME280;67260;53.130;17.982;2023-08-01T03:42:06;99719.71;;;18.17;70.49
77013;BME280;67260;53.130;17.982;2023-08-01T03:44:32;99719.39;;;18.19;70.47
77013;BME280;67260;53.130;17.982;2023-08-01T03:47:00;99714.91;;;18.20;70.71
77013;BME280;67260;53.130;17.982;2023-08-01T03:49:26;99710.83;;;18.19;70.70
77013;BME280;67260;53.130;17.982;2023-08-01T03:51:54;99711.21;;;18.18;70.86
77013;BME280;67260;53.130;17.982;2023-08-01T03:54:20;99713.88;;;18.16;71.18
77013;BME280;67260;53.130;17.982;2023-08-01T03:56:48;99715.30;;;18.12;71.37
77013;BME280;67260;53.130;17.982;2023-08-01T03:59:15;99715.23;;;18.06;71.52
77013;BME280;67260;53.130;17.982;2023-08-01T04:01:42;99710.39;;;18.01;71.94
77013;BME280;67260;53.130;17.982;2023-08-01T04:04:09;99716.02;;;17.95;72.15
77013;BME280;67260;53.130;17.982;2023-08-01T04:06:37;99719.06;;;17.89;72.36
77013;BME280;67260;53.130;17.982;2023-08-01T04:09:03;99724.15;;;17.84;72.74
77013;BME280;67260;53.130;17.982;2023-08-01T04:11:30;99719.14;;;17.78;72.88
77013;BME280;67260;53.130;17.982;2023-08-01T04:13:57;99710.84;;;17.74;73.10
77013;BME280;67260;53.130;17.982;2023-08-01T04:16:23;99711.81;;;17.72;73.22
77013;BME280;67260;53.130;17.982;2023-08-01T04:18:50;99713.86;;;17.70;73.54
77013;BME280;67260;53.130;17.982;2023-08-01T04:21:18;99710.64;;;17.67;73.76
77013;BME280;67260;53.130;17.982;2023-08-01T04:23:44;99711.13;;;17.66;73.75
77013;BME280;67260;53.130;17.982;2023-08-01T04:26:11;99708.80;;;17.63;74.22
77013;BME280;67260;53.130;17.982;2023-08-01T04:28:38;99707.80;;;17.60;74.25
77013;BME280;67260;53.130;17.982;2023-08-01T04:31:04;99708.84;;;17.57;74.48
77013;BME280;67260;53.130;17.982;2023-08-01T04:33:31;99703.98;;;17.53;74.76
77013;BME280;67260;53.130;17.982;2023-08-01T04:35:58;99706.25;;;17.49;74.91
77013;BME280;67260;53.130;17.982;2023-08-01T04:38:24;99703.15;;;17.46;75.18
77013;BME280;67260;53.130;17.982;2023-08-01T04:40:51;99700.59;;;17.44;75.62
77013;BME280;67260;53.130;17.982;2023-08-01T04:43:18;99702.05;;;17.41;75.75
77013;BME280;67260;53.130;17.982;2023-08-01T04:45:45;99701.05;;;17.39;75.80
77013;BME280;67260;53.130;17.982;2023-08-01T04:48:11;99696.11;;;17.38;75.85
77013;BME280;67260;53.130;17.982;2023-08-01T04:50:38;99694.83;;;17.36;76.27
77013;BME280;67260;53.130;17.982;2023-08-01T04:53:05;99693.33;;;17.34;76.59
77013;BME280;67260;53.130;17.982;2023-08-01T04:55:32;99697.64;;;17.31;76.91
77013;BME280;67260;53.130;17.982;2023-08-01T04:57:59;99696.21;;;17.27;77.19
77013;BME280;67260;53.130;17.982;2023-08-01T05:00:25;99697.09;;;17.24;77.28
77013;BME280;67260;53.130;17.982;2023-08-01T05:02:52;99696.50;;;17.22;77.64
77013;BME280;67260;53.130;17.982;2023-08-01T05:05:19;99694.74;;;17.18;77.94
77013;BME280;67260;53.130;17.982;2023-08-01T05:07:46;99690.57;;;17.16;78.13
77013;BME280;67260;53.130;17.982;2023-08-01T05:10:12;99689.81;;;17.15;78.55
77013;BME280;67260;53.130;17.982;2023-08-01T05:12:39;99687.36;;;17.13;79.17
77013;BME280;67260;53.130;17.982;2023-08-01T05:15:06;99690.59;;;17.09;79.54
77013;BME280;67260;53.130;17.982;2023-08-01T05:17:33;99690.23;;;17.05;79.43
77013;BME280;67260;53.130;17.982;2023-08-01T05:20:00;99686.71;;;17.00;79.69
77013;BME280;67260;53.130;17.982;2023-08-01T05:22:27;99678.08;;;16.96;79.80
77013;BME280;67260;53.130;17.982;2023-08-01T05:24:53;99678.31;;;16.92;80.67
77013;BME280;67260;53.130;17.982;2023-08-01T05:27:20;99671.02;;;16.89;80.60
77013;BME280;67260;53.130;17.982;2023-08-01T05:29:46;99670.00;;;16.92;80.37
77013;BME280;67260;53.130;17.982;2023-08-01T05:32:13;99668.33;;;16.93;80.84
77013;BME280;67260;53.130;17.982;2023-08-01T05:34:40;99666.46;;;16.92;80.81
77013;BME280;67260;53.130;17.982;2023-08-01T05:37:07;99664.37;;;16.90;81.06
77013;BME280;67260;53.130;17.982;2023-08-01T05:39:33;99661.70;;;16.88;81.14
77013;BME280;67260;53.130;17.982;2023-08-01T05:42:00;99663.20;;;16.89;81.33
77013;BME280;67260;53.130;17.982;2023-08-01T05:44:26;99663.04;;;16.89;81.17
77013;BME280;67260;53.130;17.982;2023-08-01T05:46:53;99659.23;;;16.88;81.51
77013;BME280;67260;53.130;17.982;2023-08-01T05:49:20;99658.26;;;16.87;81.38
77013;BME280;67260;53.130;17.982;2023-08-01T05:51:47;99658.64;;;16.86;81.60
77013;BME280;67260;53.130;17.982;2023-08-01T05:54:13;99653.07;;;16.84;82.20
77013;BME280;67260;53.130;17.982;2023-08-01T05:56:40;99651.70;;;16.79;82.11
77013;BME280;67260;53.130;17.982;2023-08-01T05:59:07;99641.78;;;16.77;82.08
77013;BME280;67260;53.130;17.982;2023-08-01T06:01:34;99642.36;;;16.76;82.28
77013;BME280;67260;53.130;17.982;2023-08-01T06:04:00;99635.62;;;16.72;82.47
77013;BME280;67260;53.130;17.982;2023-08-01T06:06:27;99643.85;;;16.68;82.51
77013;BME280;67260;53.130;17.982;2023-08-01T06:08:54;99646.16;;;16.64;82.77
77013;BME280;67260;53.130;17.982;2023-08-01T06:11:20;99650.61;;;16.60;82.88
77013;BME280;67260;53.130;17.982;2023-08-01T06:13:47;99650.09;;;16.57;82.99
77013;BME280;67260;53.130;17.982;2023-08-01T06:16:14;99651.38;;;16.55;83.05
77013;BME280;67260;53.130;17.982;2023-08-01T06:18:40;99650.96;;;16.53;83.16
77013;BME280;67260;53.130;17.982;2023-08-01T06:21:07;99650.48;;;16.53;83.85
77013;BME280;67260;53.130;17.982;2023-08-01T06:23:34;99645.11;;;16.54;83.61
77013;BME280;67260;53.130;17.982;2023-08-01T06:26:00;99639.75;;;16.56;84.18
77013;BME280;67260;53.130;17.982;2023-08-01T06:28:27;99635.45;;;16.59;83.71
77013;BME280;67260;53.130;17.982;2023-08-01T06:30:54;99638.33;;;16.64;83.46
77013;BME280;67260;53.130;17.982;2023-08-01T06:33:21;99636.55;;;16.66;83.40
77013;BME280;67260;53.130;17.982;2023-08-01T06:35:48;99635.10;;;16.65;83.74
77013;BME280;67260;53.130;17.982;2023-08-01T06:38:15;99632.86;;;16.63;83.96
77013;BME280;67260;53.130;17.982;2023-08-01T06:40:42;99627.34;;;16.61;84.11
77013;BME280;67260;53.130;17.982;2023-08-01T06:43:08;99625.84;;;16.62;83.80
77013;BME280;67260;53.130;17.982;2023-08-01T06:45:35;99621.80;;;16.64;84.16
77013;BME280;67260;53.130;17.982;2023-08-01T06:48:02;99626.31;;;16.66;84.12
77013;BME280;67260;53.130;17.982;2023-08-01T06:50:29;99632.09;;;16.70;84.19
77013;BME280;67260;53.130;17.982;2023-08-01T06:52:56;99629.66;;;16.73;84.19
77013;BME280;67260;53.130;17.982;2023-08-01T06:55:22;99623.86;;;16.79;83.89
77013;BME280;67260;53.130;17.982;2023-08-01T06:57:49;99620.29;;;16.86;83.85
77013;BME280;67260;53.130;17.982;2023-08-01T07:00:16;99616.23;;;16.92;83.89
77013;BME280;67260;53.130;17.982;2023-08-01T07:02:43;99615.30;;;16.96;83.99
77013;BME280;67260;53.130;17.982;2023-08-01T07:05:10;99613.83;;;16.99;84.16
77013;BME280;67260;53.130;17.982;2023-08-01T07:07:36;99606.05;;;17.02;84.11
77013;BME280;67260;53.130;17.982;2023-08-01T07:10:03;99604.52;;;17.06;84.45
77013;BME280;67260;53.130;17.982;2023-08-01T07:12:30;99602.77;;;17.15;85.24
77013;BME280;67260;53.130;17.982;2023-08-01T07:14:57;99602.42;;;17.16;85.57
77013;BME280;67260;53.130;17.982;2023-08-01T07:17:24;99599.20;;;17.18;85.74
77013;BME280;67260;53.130;17.982;2023-08-01T07:19:52;99595.40;;;17.24;85.90
77013;BME280;67260;53.130;17.982;2023-08-01T07:22:21;99588.39;;;17.45;85.91
77013;BME280;67260;53.130;17.982;2023-08-01T07:24:53;99587.02;;;17.65;85.68
77013;BME280;67260;53.130;17.982;2023-08-01T07:27:22;99588.41;;;17.67;85.75
77013;BME280;67260;53.130;17.982;2023-08-01T07:29:57;99586.34;;;17.60;85.87
77013;BME280;67260;53.130;17.982;2023-08-01T07:32:24;99584.16;;;17.58;86.01
77013;BME280;67260;53.130;17.982;2023-08-01T07:34:58;99581.80;;;17.60;85.95
77013;BME280;67260;53.130;17.982;2023-08-01T07:37:29;99575.34;;;17.61;86.14
77013;BME280;67260;53.130;17.982;2023-08-01T07:40:24;99580.95;;;17.58;86.55
77013;BME280;67260;53.130;17.982;2023-08-01T07:43:01;99573.92;;;17.48;86.75
77013;BME280;67260;53.130;17.982;2023-08-01T07:45:48;99573.00;;;17.43;86.86
77013;BME280;67260;53.130;17.982;2023-08-01T07:48:19;99576.33;;;17.43;87.32
77013;BME280;67260;53.130;17.982;2023-08-01T07:50:49;99573.61;;;17.41;86.81
77013;BME280;67260;53.130;17.982;2023-08-01T07:53:29;99572.13;;;17.38;86.94
77013;BME280;67260;53.130;17.982;2023-08-01T07:55:56;99568.59;;;17.36;87.49
77013;BME280;67260;53.130;17.982;2023-08-01T07:58:24;99567.95;;;17.36;87.38
77013;BME280;67260;53.130;17.982;2023-08-01T08:00:51;99563.68;;;17.40;87.39
77013;BME280;67260;53.130;17.982;2023-08-01T08:03:20;99564.77;;;17.52;87.61
77013;BME280;67260;53.130;17.982;2023-08-01T08:05:59;99565.00;;;17.57;86.87
77013;BME280;67260;53.130;17.982;2023-08-01T08:08:47;99563.27;;;17.59;87.30
77013;BME280;67260;53.130;17.982;2023-08-01T08:11:29;99565.88;;;17.69;87.11
77013;BME280;67260;53.130;17.982;2023-08-01T08:13:58;99559.67;;;17.77;87.01
77013;BME280;67260;53.130;17.982;2023-08-01T08:16:26;99556.73;;;17.82;87.07
77013;BME280;67260;53.130;17.982;2023-08-01T08:18:57;99559.96;;;17.81;86.10
77013;BME280;67260;53.130;17.982;2023-08-01T08:21:25;99557.38;;;17.76;86.34
77013;BME280;67260;53.130;17.982;2023-08-01T08:23:55;99555.55;;;17.65;86.62
77013;BME280;67260;53.130;17.982;2023-08-01T08:26:36;99553.14;;;17.63;87.54
77013;BME280;67260;53.130;17.982;2023-08-01T08:29:06;99553.67;;;17.62;86.88
77013;BME280;67260;53.130;17.982;2023-08-01T08:31:40;99550.63;;;17.61;87.06
77013;BME280;67260;53.130;17.982;2023-08-01T08:34:10;99546.67;;;17.72;87.30
77013;BME280;67260;53.130;17.982;2023-08-01T08:36:41;99545.89;;;17.75;87.35
77013;BME280;67260;53.130;17.982;2023-08-01T08:39:09;99544.30;;;17.72;87.54
77013;BME280;67260;53.130;17.982;2023-08-01T08:41:47;99541.46;;;17.71;87.69
77013;BME280;67260;53.130;17.982;2023-08-01T08:44:18;99542.30;;;17.74;87.81
77013;BME280;67260;53.130;17.982;2023-08-01T08:46:57;99536.14;;;17.89;87.53
77013;BME280;67260;53.130;17.982;2023-08-01T08:49:27;99536.81;;;18.02;86.82
77013;BME280;67260;53.130;17.982;2023-08-01T08:52:02;99535.19;;;18.19;86.65
77013;BME280;67260;53.130;17.982;2023-08-01T08:54:47;99528.73;;;18.34;86.07
77013;BME280;67260;53.130;17.982;2023-08-01T08:57:25;99527.31;;;18.49;84.89
77013;BME280;67260;53.130;17.982;2023-08-01T09:00:16;99526.71;;;18.54;84.85
77013;BME280;67260;53.130;17.982;2023-08-01T09:02:43;99518.89;;;18.84;84.29
77013;BME280;67260;53.130;17.982;2023-08-01T09:05:16;99519.56;;;19.41;82.92
77013;BME280;67260;53.130;17.982;2023-08-01T09:07:56;99509.10;;;19.80;81.72
77013;BME280;67260;53.130;17.982;2023-08-01T09:10:24;99508.11;;;20.15;81.28
77013;BME280;67260;53.130;17.982;2023-08-01T09:12:52;99502.55;;;20.73;80.13
77013;BME280;67260;53.130;17.982;2023-08-01T09:15:18;99494.69;;;20.98;78.59
77013;BME280;67260;53.130;17.982;2023-08-01T09:17:57;99482.08;;;21.09;78.62
77013;BME280;67260;53.130;17.982;2023-08-01T09:20:45;99482.27;;;21.14;76.62
77013;BME280;67260;53.130;17.982;2023-08-01T09:23:13;99486.59;;;20.89;78.34
77013;BME280;67260;53.130;17.982;2023-08-01T09:25:41;99487.22;;;20.65;78.59
77013;BME280;67260;53.130;17.982;2023-08-01T09:28:22;99487.11;;;20.60;78.02
77013;BME280;67260;53.130;17.982;2023-08-01T09:30:55;99486.89;;;20.54;76.91
77013;BME280;67260;53.130;17.982;2023-08-01T09:33:23;99480.56;;;20.39;77.73
77013;BME280;67260;53.130;17.982;2023-08-01T09:35:55;99481.17;;;20.32;77.75
77013;BME280;67260;53.130;17.982;2023-08-01T09:38:25;99474.58;;;20.22;78.00
77013;BME280;67260;53.130;17.982;2023-08-01T09:40:55;99475.17;;;20.12;79.12
77013;BME280;67260;53.130;17.982;2023-08-01T09:43:42;99475.29;;;20.11;77.89
77013;BME280;67260;53.130;17.982;2023-08-01T09:46:18;99473.15;;;20.10;77.10
77013;BME280;67260;53.130;17.982;2023-08-01T09:48:45;99464.83;;;20.03;77.74
77013;BME280;67260;53.130;17.982;2023-08-01T09:51:21;99463.88;;;20.05;77.94
77013;BME280;67260;53.130;17.982;2023-08-01T09:54:06;99461.09;;;20.04;77.83
77013;BME280;67260;53.130;17.982;2023-08-01T10:00:20;99457.30;;;19.91;77.91
77013;BME280;67260;53.130;17.982;2023-08-01T10:03:11;99454.29;;;19.82;77.81
77013;BME280;67260;53.130;17.982;2023-08-01T10:05:54;99448.54;;;19.73;78.25
77013;BME280;67260;53.130;17.982;2023-08-01T10:08:24;99447.04;;;19.68;78.39
77013;BME280;67260;53.130;17.982;2023-08-01T10:11:04;99449.02;;;19.59;78.65
77013;BME280;67260;53.130;17.982;2023-08-01T10:13:48;99446.88;;;19.48;79.18
77013;BME280;67260;53.130;17.982;2023-08-01T10:16:38;99447.81;;;19.40;80.90
77013;BME280;67260;53.130;17.982;2023-08-01T10:19:13;99451.09;;;19.35;81.07
77013;BME280;67260;53.130;17.982;2023-08-01T10:22:00;99450.96;;;19.23;79.84
77013;BME280;67260;53.130;17.982;2023-08-01T10:24:29;99447.13;;;19.11;80.76
77013;BME280;67260;53.130;17.982;2023-08-01T10:27:14;99449.52;;;18.99;81.42
77013;BME280;67260;53.130;17.982;2023-08-01T10:29:42;99444.18;;;18.88;82.04
77013;BME280;67260;53.130;17.982;2023-08-01T10:32:10;99435.83;;;18.82;82.78
77013;BME280;67260;53.130;17.982;2023-08-01T10:34:40;99427.56;;;18.84;83.39
77013;BME280;67260;53.130;17.982;2023-08-01T10:37:24;99417.59;;;19.06;83.88
77013;BME280;67260;53.130;17.982;2023-08-01T10:39:59;99411.95;;;19.36;83.04
77013;BME280;67260;53.130;17.982;2023-08-01T10:42:40;99405.98;;;19.61;82.23
77013;BME280;67260;53.130;17.982;2023-08-01T10:45:29;99401.34;;;19.88;82.24
77013;BME280;67260;53.130;17.982;2023-08-01T10:48:09;99394.73;;;20.03;82.19
77013;BME280;67260;53.130;17.982;2023-08-01T10:50:37;99394.34;;;19.99;80.75
77013;BME280;67260;53.130;17.982;2023-08-01T10:53:07;99386.89;;;19.83;81.19
77013;BME280;67260;53.130;17.982;2023-08-01T10:55:43;99381.69;;;19.61;82.17
77013;BME280;67260;53.130;17.982;2023-08-01T10:58:10;99380.57;;;19.42;83.24
77013;BME280;67260;53.130;17.982;2023-08-01T11:00:39;99376.41;;;19.34;83.32
77013;BME280;67260;53.130;17.982;2023-08-01T11:03:09;99373.10;;;19.40;83.29
77013;BME280;67260;53.130;17.982;2023-08-01T11:05:57;99372.27;;;19.47;83.36
77013;BME280;67260;53.130;17.982;2023-08-01T11:08:35;99369.26;;;19.42;83.67
77013;BME280;67260;53.130;17.982;2023-08-01T11:11:04;99374.09;;;19.31;84.04
77013;BME280;67260;53.130;17.982;2023-08-01T11:13:31;99369.84;;;19.24;83.43
77013;BME280;67260;53.130;17.982;2023-08-01T11:16:05;99368.99;;;19.26;83.32
77013;BME280;67260;53.130;17.982;2023-08-01T11:18:42;99366.67;;;19.29;83.23
77013;BME280;67260;53.130;17.982;2023-08-01T11:21:11;99363.02;;;19.28;82.99
77013;BME280;67260;53.130;17.982;2023-08-01T11:27:10;99358.04;;;19.55;81.97
77013;BME280;67260;53.130;17.982;2023-08-01T11:29:38;99363.36;;;19.42;82.43
77013;BME280;67260;53.130;17.982;2023-08-01T11:32:07;99364.52;;;19.21;83.07
77013;BME280;67260;53.130;17.982;2023-08-01T11:34:40;99359.84;;;18.99;84.90
77013;BME280;67260;53.130;17.982;2023-08-01T11:37:18;99365.52;;;18.74;85.57
77013;BME280;67260;53.130;17.982;2023-08-01T11:39:47;99367.91;;;18.47;86.28
77013;BME280;67260;53.130;17.982;2023-08-01T11:42:20;99367.11;;;18.36;87.08
77013;BME280;67260;53.130;17.982;2023-08-01T11:44:47;99363.23;;;18.41;87.24
77013;BME280;67260;53.130;17.982;2023-08-01T11:47:15;99361.41;;;18.46;87.08
77013;BME280;67260;53.130;17.982;2023-08-01T11:49:47;99360.15;;;18.49;86.83
77013;BME280;67260;53.130;17.982;2023-08-01T11:52:27;99353.73;;;18.49;86.90
77013;BME280;67260;53.130;17.982;2023-08-01T11:55:03;99351.09;;;18.39;87.66
77013;BME280;67260;53.130;17.982;2023-08-01T11:57:30;99340.68;;;18.34;87.72
77013;BME280;67260;53.130;17.982;2023-08-01T11:59:58;99344.38;;;18.42;88.02
77013;BME280;67260;53.130;17.982;2023-08-01T12:02:29;99338.73;;;18.45;87.88
77013;BME280;67260;53.130;17.982;2023-08-01T12:05:05;99341.08;;;18.47;88.00
77013;BME280;67260;53.130;17.982;2023-08-01T12:07:38;99334.14;;;18.54;87.15
77013;BME280;67260;53.130;17.982;2023-08-01T12:10:12;99331.35;;;18.72;87.46
77013;BME280;67260;53.130;17.982;2023-08-01T12:12:48;99329.08;;;19.03;87.13
77013;BME280;67260;53.130;17.982;2023-08-01T12:15:19;99325.61;;;19.33;86.18
77013;BME280;67260;53.130;17.982;2023-08-01T12:17:46;99327.20;;;19.41;85.71
77013;BME280;67260;53.130;17.982;2023-08-01T12:20:13;99321.67;;;19.40;84.77
77013;BME280;67260;53.130;17.982;2023-08-01T12:22:42;99314.48;;;19.50;85.26
77013;BME280;67260;53.130;17.982;2023-08-01T12:25:09;99318.39;;;19.63;85.12
77013;BME280;67260;53.130;17.982;2023-08-01T12:27:36;99313.34;;;19.65;84.97
77013;BME280;67260;53.130;17.982;2023-08-01T12:30:03;99311.52;;;19.74;84.69
77013;BME280;67260;53.130;17.982;2023-08-01T12:32:30;99313.50;;;19.50;83.33
77013;BME280;67260;53.130;17.982;2023-08-01T12:34:57;99309.92;;;19.35;85.37
77013;BME280;67260;53.130;17.982;2023-08-01T12:37:24;99313.42;;;19.23;85.06
77013;BME280;67260;53.130;17.982;2023-08-01T12:39:54;99307.08;;;19.08;86.44
77013;BME280;67260;53.130;17.982;2023-08-01T12:42:44;99304.67;;;19.07;86.65
77013;BME280;67260;53.130;17.982;2023-08-01T12:45:22;99304.42;;;19.09;87.14
77013;BME280;67260;53.130;17.982;2023-08-01T12:47:54;99305.88;;;19.08;86.81
77013;BME280;67260;53.130;17.982;2023-08-01T12:50:36;99304.40;;;19.07;86.96
77013;BME280;67260;53.130;17.982;2023-08-01T12:53:03;99300.06;;;19.17;87.44
77013;BME280;67260;53.130;17.982;2023-08-01T12:55:31;99297.40;;;19.22;86.83
77013;BME280;67260;53.130;17.982;2023-08-01T12:57:58;99298.42;;;19.27;87.32
77013;BME280;67260;53.130;17.982;2023-08-01T13:00:35;99298.88;;;19.23;87.06
77013;BME280;67260;53.130;17.982;2023-08-01T13:03:05;99290.73;;;19.18;86.92
77013;BME280;67260;53.130;17.982;2023-08-01T13:05:41;99289.90;;;19.17;87.40
77013;BME280;67260;53.130;17.982;2023-08-01T13:08:08;99290.36;;;19.29;87.71
77013;BME280;67260;53.130;17.982;2023-08-01T13:10:37;99283.19;;;19.36;87.83